« Back
NWS Peachtree City, Ga » Text Product » MCN Terminal Aerodrome Forecast


Printer-friendly Version
Current Version              Previous Versions:   1  2  3  4  5  6  7  8  9  

Terminal Aerodrome Forecast

723
FTUS42 KFFC 050520
TAFMCN
TAF
KMCN 050520Z 0506/0606 28003KT P6SM VCSH BKN008
      TEMPO 0508/0512 BKN012
     FM051400 27003KT P6SM BKN025
     FM051900 22009G14KT P6SM VCSH BKN050 PROB30 0519/0524 3SM -TSRA
      BKN025CB
     FM060200 25003KT P6SM BKN040=

USA.gov is the U.S. government's official web portal to all federal, state and local government web resources and services.